Nearby METAR Reports

Here are local weather reports from nearby weather stations and airports.

KHFD - Hartford/Brainar, Connecticut, USA
Distance from station: NE 5mi, 8km
Updated: Mon, 12/06/21 9:23pm EST
Light rain, Mist, Overcast
Light rain, Mist, Overcast
 Wind from WNW
Wind: WNW 7 mph , 11 km/h
Temperature: 57°F , 14°C
Dew Point: 54°F , 12°C
Humidity: 88%
Barometer: 29.60 inHg , 1002.4 hPa
Summary: Light rain, Mist
Clouds: Overcast
Visibility: 6 miles , 10 km
Cloud details: Few Clouds 1300 ft
Mostly cloudy 2000 ft
Overcast 2900 ft
2021/12/07 02:23 KHFD 070223Z 30006KT 6SM -RA BR FEW013 BKN020 OVC029 14/12 A2960 RMK AO2 PRESRR P0002 T01390117
KMMK - Meriden, Connecticut, USA
Distance from station: SSW 13mi, 21km
Updated: Mon, 12/06/21 8:53pm EST
Light rain, Overcast
Light rain, Overcast
 Wind from SSW
Wind: SSW 7 mph , 11 km/h
Temperature: 57°F , 14°C
Dew Point: 52°F , 11°C
Humidity: 82%
Barometer: 29.59 inHg , 1002 hPa
Summary: Light rain
Clouds: Overcast
Visibility: 7 miles , 11 km
Cloud details: Mostly cloudy 1700 ft
Mostly cloudy 3000 ft
Overcast 5500 ft
2021/12/07 01:53 KMMK 070153Z AUTO 20006KT 7SM -RA BKN017 BKN030 OVC055 14/11 A2959 RMK AO2 RAB04 SLP018 P0004 T01390111
 
KBDL - Windsor Locks, Connecticut, USA
Distance from station: N 17mi, 28km
Updated: Mon, 12/06/21 9:21pm EST
Rain, Overcast
Rain, Overcast
 Wind from NW
Wind: NW 23 mph , 37 km/h, Gust: 44 mph , 70 km/h
Temperature: 46°F , 8°C
Wind Chill: 38°F , 3°C
Dew Point: 41°F , 5°C
Humidity: 82%
Barometer: 29.65 inHg , 1004.1 hPa
Summary: Rain
Clouds: Overcast
Visibility: 7 miles , 11 km
Cloud details: Few Clouds 2200 ft
Mostly cloudy 3400 ft
Overcast 7500 ft
2021/12/07 02:21 KBDL 070221Z 31020G38KT 7SM RA FEW022 BKN034 OVC075 08/05 A2965 RMK AO2 PK WND 33038/0211 WSHFT 0201 PRESRR P0007 T00830050
KSNC - Chester, Connecticut, USA
Distance from station: SSE 24mi, 38km
Updated: Mon, 12/06/21 9:15pm EST
Light rain, Overcast
Light rain, Overcast
 
Temperature: 55°F , 13°C
Dew Point: 54°F , 12°C
Humidity: 94%
Barometer: 29.60 inHg , 1002.4 hPa
Summary: Light rain
Clouds: Overcast
Visibility: 3 miles , 5 km
Cloud details: Few Clouds 100 ft
Mostly cloudy 1400 ft
Overcast 2300 ft
2021/12/07 02:15 KSNC 070215Z AUTO 3SM -RA FEW001 BKN014 OVC023 13/12 A2960 RMK AO2
 
KOXC - Oxford/Waterbury, Connecticut, USA
Distance from station: SW 26mi, 42km
Updated: Mon, 12/06/21 8:51pm EST
Rain, Mist, Overcast
Rain, Mist, Overcast
 Wind from WSW
Wind: WSW 7 mph , 11 km/h, Gust: 16 mph , 26 km/h
Temperature: 54°F , 12°C
Dew Point: 54°F , 12°C
Humidity: 100%
Barometer: 29.61 inHg , 1002.7 hPa
Summary: Rain, Mist
Clouds: Overcast
Visibility: 4 miles , 6 km
Cloud details: Mostly cloudy 700 ft
Mostly cloudy 1400 ft
Overcast 2200 ft
2021/12/07 01:51 KOXC 070151Z 25006G14KT 4SM RA BR BKN007 BKN014 OVC022 12/12 A2961 RMK AO2 CIG 005V011 SLP040 P0006 T01220117
KIJD - Willimantic, Connecticut, USA
Distance from station: E 28mi, 45km
Updated: Mon, 12/06/21 9:07pm EST
Light rain, Mist, Overcast
Light rain, Mist, Overcast
 Wind from SW
Wind: SW 10 mph , 17 km/h
Temperature: 55°F , 13°C
Dew Point: 54°F , 12°C
Humidity: 94%
Barometer: 29.57 inHg , 1001.4 hPa
Summary: Light rain, Mist
Clouds: Overcast
Visibility: 4 miles , 6 km
Cloud details: Mostly cloudy 1400 ft
Mostly cloudy 1900 ft
Overcast 4700 ft
2021/12/07 02:07 KIJD 070207Z AUTO 22009KT 4SM -RA BR BKN014 BKN019 OVC047 13/12 A2957 RMK AO2 P0001 T01330117
 
KHVN - New Haven/Tweed, Connecticut, USA
Distance from station: SSW 30mi, 48km
Updated: Mon, 12/06/21 9:00pm EST
Mist, Overcast
Mist, Overcast
 Wind from WSW
Wind: WSW 7 mph , 11 km/h, Gust: 16 mph , 26 km/h
Temperature: 55°F , 13°C
Dew Point: 52°F , 11°C
Humidity: 88%
Barometer: 29.60 inHg , 1002.4 hPa
Summary: Mist
Clouds: Overcast
Visibility: 5 miles , 8 km
Cloud details: Few Clouds 3200 ft
Partly cloudy 3900 ft
Overcast 6500 ft
2021/12/07 02:00 KHVN 070200Z 24006G14KT 5SM BR FEW032 SCT039 OVC065 13/11 A2960 RMK AO2 T01330111
KBAF - Westfield, Massachusetts, USA
Distance from station: 0 33mi, 54km
Updated: Mon, 12/06/21 9:00pm EST
Light rain, Overcast
Light rain, Overcast
 Wind from NW
Wind: NW 22 mph , 35 km/h, Gust: 38 mph , 61 km/h
Temperature: 45°F , 7°C
Wind Chill: 37°F , 3°C
Dew Point: 39°F , 4°C
Humidity: 81%
Barometer: 29.62 inHg , 1003 hPa
Summary: Light rain
Clouds: Overcast
Visibility: 8 miles , 13 km
Cloud details: Few Clouds 1900 ft
Mostly cloudy 3900 ft
Overcast 7000 ft
2021/12/07 02:00 KBAF 070200Z 31019G33KT 8SM -RA FEW019 BKN039 OVC070 07/04 A2962 RMK AO2 PK WND 32033/0155 WSHFT 0140 P0001 T00720039
 
KCEF - Chicopee/Westove, Massachusetts, USA
Distance from station: NNE 37mi, 60km
Updated: Mon, 12/06/21 8:56pm EST
Light rain, Squalls, Overcast
Light rain, Squalls, Overcast
 Wind from NNW
Wind: NNW 28 mph , 44 km/h, Gust: 45 mph , 72 km/h
Temperature: 48°F , 9°C
Wind Chill: 40°F , 4°C
Dew Point: 45°F , 7°C
Humidity: 87%
Barometer: 29.58 inHg , 1001.7 hPa
Summary: Light rain, Squalls
Clouds: Overcast
Visibility: 5 miles , 8 km
Cloud details: Few Clouds 500 ft
Partly cloudy 1100 ft
Partly cloudy 2600 ft
Mostly cloudy 3600 ft
Overcast 6000 ft
2021/12/07 01:56 KCEF 070156Z 34024G39KT 5SM -RA SQ FEW005 SCT011 SCT026 BKN036 OVC060 09/07 A2958 RMK AO2A PK WND 34039/49 SLP024 P0007 T00940065
KBDR - Bridgeport, Connecticut, USA
Distance from station: SSW 42mi, 67km
Updated: Mon, 12/06/21 9:18pm EST
Heavy rain, Mist, Overcast
Heavy rain, Mist, Overcast
 Wind from WNW
Wind: WNW 17 mph , 28 km/h, Gust: 30 mph , 48 km/h
Temperature: 54°F , 12°C
Dew Point: 52°F , 11°C
Humidity: 94%
Barometer: 29.65 inHg , 1004.1 hPa
Summary: Heavy rain, Mist
Clouds: Overcast
Visibility: 5 miles , 8 km
Cloud details: Partly cloudy 1100 ft
Mostly cloudy 2100 ft
Overcast 3900 ft
2021/12/07 02:18 KBDR 070218Z 29015G26KT 5SM +RA BR SCT011 BKN021 OVC039 12/11 A2965 RMK AO2 PK WND 27026/0218 PRESRR P0002 T01220111
 
KGON - Groton/New Londo, Connecticut, USA
Distance from station: SE 42mi, 68km
Updated: Mon, 12/06/21 8:56pm EST
Light rain, Overcast
Light rain, Overcast
 Wind from SW
Wind: SW 22 mph , 35 km/h, Gust: 30 mph , 48 km/h
Temperature: 54°F , 12°C
Dew Point: 54°F , 12°C
Humidity: 100%
Barometer: 29.59 inHg , 1002 hPa
Summary: Light rain
Clouds: Overcast
Visibility: 10 miles , 16 km
Cloud details: Few Clouds 5000 ft
Overcast 6500 ft
2021/12/07 01:56 KGON 070156Z 22019G26KT 10SM -RA FEW050 OVC065 12/12 A2959 RMK AO2 PK WND 22027/0136 RAB16 SLP018 P0002 T01170117
KDXR - Danbury, Connecticut, USA
Distance from station: WSW 45mi, 73km
Updated: Mon, 12/06/21 8:53pm EST
Light rain, Overcast
Light rain, Overcast
 Wind from WNW
Wind: WNW 24 mph , 39 km/h, Gust: 37 mph , 59 km/h
Temperature: 55°F , 13°C
Dew Point: 46°F , 8°C
Humidity: 72%
Barometer: 29.66 inHg , 1004.4 hPa
Summary: Light rain
Clouds: Overcast
Visibility: 9 miles , 14 km
Cloud details: Few Clouds 1400 ft
Mostly cloudy 2900 ft
Overcast 4800 ft
2021/12/07 01:53 KDXR 070153Z 30021G32KT 240V320 9SM -RA FEW014 BKN029 OVC048 13/08 A2966 RMK AO2 PK WND 31032/0153 PRESRR SLP043 P0008 T01330083